Sacanta, Argentina
Current Conditions -  °F | °C
As of 3:00 AM on Monday 22 Dec 2014 (Local Time) from SACO Reporting Station
Clear Clear  
Wind Chill: 46°   Ceiling: Unl
Heat Index: 48°   Visibility: 6mi
Dew Point: 37°   Wind: 6mph
Humidity: 66%   Direction: 270°W
Pressure: 30.12"   Gusts: NA
Location:  31.67°S, 63.07°W
Report Text: SACO 220600Z 27005KT CAVOK 09/03 Q1020
Loading
Personal Weather Stations






























Interactive Weather Map New forecast layout! Learn more

10-Day Weather Forecast

Advertisements
Track Severe Weather on mobile